Time;durP1;ratioP1;P1;durP2;ratioP2;P2;SDS_P1;SDS_P2;PMS_P1;PMS_P2;Temp;Humidity;BMP_temperature;BMP_pressure;BME280_temperature;BME280_humidity;BME280_pressure;Samples;Min_cycle;Max_cycle;Signal;HPM_P1;HPM_P2
2022/03/11 00:02:03;;;;;;;12.50;7.70;;;9.80;99.90;;;;;;5016206;28;20488;-73
2022/03/11 00:04:29;;;;;;;14.60;7.55;;;9.70;99.90;;;;;;5016091;28;20036;-73
2022/03/11 00:06:55;;;;;;;16.27;8.15;;;9.70;99.90;;;;;;5016219;28;20477;-73
2022/03/11 00:09:22;;;;;;;15.77;8.23;;;9.80;99.90;;;;;;5015837;28;20049;-73
2022/03/11 00:11:48;;;;;;;14.20;8.07;;;9.80;99.90;;;;;;5016507;28;20119;-73
2022/03/11 00:14:14;;;;;;;15.35;8.48;;;9.80;99.90;;;;;;5016368;28;20034;-73
2022/03/11 00:16:39;;;;;;;20.65;9.15;;;9.80;99.90;;;;;;5015801;28;20052;-73
2022/03/11 00:19:05;;;;;;;13.18;7.88;;;9.80;99.90;;;;;;5015937;28;20045;-73
2022/03/11 00:21:32;;;;;;;15.63;8.20;;;9.90;99.90;;;;;;5015861;28;20508;-73
2022/03/11 00:23:58;;;;;;;17.00;8.07;;;9.80;99.90;;;;;;5015595;28;20068;-73
2022/03/11 00:26:24;;;;;;;18.20;8.75;;;9.90;94.40;;;;;;5015811;28;20129;-73
2022/03/11 00:28:50;;;;;;;17.35;8.70;;;9.90;97.90;;;;;;5015311;28;20072;-73
2022/03/11 00:31:16;;;;;;;21.50;9.13;;;9.90;93.20;;;;;;5015353;28;20050;-73
2022/03/11 00:33:42;;;;;;;15.02;8.65;;;9.90;98.40;;;;;;5015713;28;20113;-73
2022/03/11 00:36:08;;;;;;;16.55;8.90;;;9.90;97.90;;;;;;4998337;28;20388;-73
2022/03/11 00:38:34;;;;;;;21.00;9.13;;;9.90;96.70;;;;;;5015605;28;20065;-73
2022/03/11 00:41:00;;;;;;;16.23;9.45;;;9.90;98.10;;;;;;5016090;28;20084;-73
2022/03/11 00:43:26;;;;;;;21.08;9.85;;;9.90;97.40;;;;;;5015718;28;20038;-73
2022/03/11 00:45:53;;;;;;;21.60;9.07;;;9.90;95.60;;;;;;5015632;28;20045;-73
2022/03/11 00:48:20;;;;;;;18.00;8.73;;;9.90;99.90;;;;;;4997966;28;20374;-73
2022/03/11 00:50:47;;;;;;;20.38;8.77;;;9.90;97.10;;;;;;5015328;28;20128;-73
2022/03/11 00:53:13;;;;;;;19.05;8.68;;;9.90;98.60;;;;;;5015424;28;20042;-73
2022/03/11 00:55:39;;;;;;;22.40;9.05;;;9.90;99.90;;;;;;5015604;28;20129;-73
2022/03/11 00:58:05;;;;;;;20.48;8.80;;;9.80;99.90;;;;;;5015554;28;20496;-73
2022/03/11 01:00:32;;;;;;;19.73;9.57;;;9.80;99.90;;;;;;5015530;28;20046;-73
2022/03/11 01:02:58;;;;;;;17.35;8.65;;;9.80;99.90;;;;;;5015417;28;20026;-73
2022/03/11 01:05:24;;;;;;;19.50;8.65;;;9.80;99.90;;;;;;5015451;28;20044;-73
2022/03/11 01:07:51;;;;;;;18.42;9.35;;;9.70;99.90;;;;;;5015070;28;20155;-73
2022/03/11 01:10:18;;;;;;;15.90;9.20;;;9.80;99.90;;;;;;5015056;28;20493;-73
2022/03/11 01:12:43;;;;;;;22.05;9.40;;;9.80;99.90;;;;;;5015447;28;20088;-73
2022/03/11 01:15:10;;;;;;;22.15;9.75;;;9.80;99.90;;;;;;5015847;28;20045;-73
2022/03/11 01:17:37;;;;;;;19.90;9.00;;;9.80;99.90;;;;;;5014757;28;20065;-73
2022/03/11 01:20:07;;;;;;;14.88;9.00;;;9.80;99.90;;;;;;5015800;28;20045;-73
2022/03/11 01:22:33;;;;;;;19.25;9.05;;;9.80;99.90;;;;;;5015273;28;20076;-73
2022/03/11 01:25:00;;;;;;;14.18;8.48;;;9.80;99.90;;;;;;5015191;28;20069;-73
2022/03/11 01:27:26;;;;;;;19.80;10.18;;;9.80;99.90;;;;;;5015055;28;20045;-73
2022/03/11 01:29:52;;;;;;;21.35;10.30;;;9.80;95.00;;;;;;5015571;28;20041;-73
2022/03/11 01:32:18;;;;;;;14.50;8.85;;;9.80;98.60;;;;;;5014620;28;20475;-73
2022/03/11 01:34:43;;;;;;;19.17;9.07;;;9.80;99.90;;;;;;5015074;28;20136;-73
2022/03/11 01:37:09;;;;;;;18.92;11.13;;;9.70;99.90;;;;;;5014992;28;20042;-73
2022/03/11 01:39:35;;;;;;;18.52;8.88;;;9.80;99.90;;;;;;5015022;28;20488;-73
2022/03/11 01:42:01;;;;;;;19.48;9.52;;;9.80;99.90;;;;;;5015072;28;20046;-73
2022/03/11 01:44:27;;;;;;;24.25;10.50;;;9.80;99.90;;;;;;5014690;28;20037;-73
2022/03/11 01:46:54;;;;;;;18.27;9.35;;;9.80;99.90;;;;;;5014635;28;20038;-73
2022/03/11 01:49:20;;;;;;;16.92;8.68;;;9.70;99.90;;;;;;5014894;28;20496;-73
2022/03/11 01:51:47;;;;;;;22.33;8.45;;;9.70;99.90;;;;;;5015107;28;20050;-73
2022/03/11 01:54:13;;;;;;;18.23;8.63;;;9.70;99.90;;;;;;5014627;28;20057;-73
2022/03/11 01:56:40;;;;;;;22.73;8.70;;;9.70;99.90;;;;;;5014856;28;20480;-73
2022/03/11 01:59:08;;;;;;;17.85;9.00;;;9.70;99.90;;;;;;5014819;28;20046;-73
2022/03/11 02:01:34;;;;;;;17.98;8.95;;;9.70;99.90;;;;;;5015127;28;20042;-73
2022/03/11 02:04:01;;;;;;;22.38;8.88;;;9.70;99.90;;;;;;5015029;28;20057;-73
2022/03/11 02:06:26;;;;;;;13.85;8.77;;;9.70;99.90;;;;;;5014665;28;20552;-73
2022/03/11 02:08:54;;;;;;;17.30;8.40;;;9.70;99.90;;;;;;5014678;28;20121;-73
2022/03/11 02:11:20;;;;;;;16.85;8.77;;;9.70;99.90;;;;;;5014718;28;20042;-73
2022/03/11 02:13:47;;;;;;;20.52;9.23;;;9.60;99.90;;;;;;5014741;28;20199;-73
2022/03/11 02:16:15;;;;;;;15.63;8.27;;;9.60;99.90;;;;;;5014541;28;20038;-73
2022/03/11 02:18:41;;;;;;;15.18;7.40;;;9.60;99.90;;;;;;5014917;28;20484;-73
2022/03/11 02:21:09;;;;;;;19.23;7.63;;;9.70;94.90;;;;;;5014879;28;20041;-73
2022/03/11 02:23:46;;;;;;;19.58;7.93;;;9.70;90.00;;;;;;5015371;28;20052;-73
2022/03/11 02:26:13;;;;;;;20.83;8.38;;;9.70;87.80;;;;;;5014625;28;20042;-73
2022/03/11 02:28:39;;;;;;;17.40;7.55;;;9.70;92.00;;;;;;5014897;28;20037;-73
2022/03/11 02:31:05;;;;;;;15.88;7.97;;;9.60;93.70;;;;;;5018360;28;20136;-73
2022/03/11 02:33:31;;;;;;;16.30;7.28;;;9.80;99.90;;;;;;5017794;28;20112;-73
2022/03/11 02:35:57;;;;;;;12.10;7.35;;;9.60;87.40;;;;;;5018393;28;20049;-73
2022/03/11 02:38:22;;;;;;;21.25;7.53;;;10.00;93.00;;;;;;5017555;28;20480;-73
2022/03/11 02:40:49;;;;;;;15.55;7.93;;;9.70;96.00;;;;;;5017765;28;20045;-73
2022/03/11 02:43:15;;;;;;;16.98;7.47;;;9.70;70.90;;;;;;5017535;28;20072;-73
2022/03/11 02:45:41;;;;;;;17.88;8.25;;;9.70;81.60;;;;;;5017445;28;20107;-73
2022/03/11 02:48:07;;;;;;;16.23;8.32;;;9.70;94.80;;;;;;5017449;28;20049;-73
2022/03/11 02:50:32;;;;;;;19.13;7.47;;;9.70;85.50;;;;;;5017881;28;20493;-73
2022/03/11 02:52:58;;;;;;;18.95;7.70;;;9.70;60.80;;;;;;5017636;28;20092;-73
2022/03/11 02:55:24;;;;;;;14.57;6.32;;;9.70;65.70;;;;;;5017558;28;20092;-73
2022/03/11 02:57:50;;;;;;;17.52;8.02;;;9.70;65.10;;;;;;5017195;28;20045;-73
2022/03/11 03:00:16;;;;;;;15.00;7.72;;;9.80;73.70;;;;;;5017436;28;20507;-73
2022/03/11 03:02:42;;;;;;;13.25;7.40;;;9.70;99.90;;;;;;5017070;28;20037;-73
2022/03/11 03:05:08;;;;;;;19.50;8.20;;;9.60;96.40;;;;;;5017123;28;20037;-73
2022/03/11 03:07:35;;;;;;;21.25;8.20;;;9.60;99.90;;;;;;5017309;28;20048;-73
2022/03/11 03:10:00;;;;;;;18.95;7.90;;;9.60;98.60;;;;;;5017527;28;20044;-73
2022/03/11 03:12:27;;;;;;;18.10;7.32;;;9.60;99.90;;;;;;5017070;28;20046;-73
2022/03/11 03:14:53;;;;;;;15.68;8.65;;;9.50;99.90;;;;;;5017190;28;20042;-73
2022/03/11 03:17:21;;;;;;;14.75;7.32;;;9.50;99.90;;;;;;5016782;28;20052;-73
2022/03/11 03:19:48;;;;;;;18.35;7.95;;;9.50;99.90;;;;;;4999989;28;20377;-73
2022/03/11 03:22:14;;;;;;;12.60;7.95;;;9.40;99.90;;;;;;5017220;28;20042;-73
2022/03/11 03:24:40;;;;;;;25.45;9.25;;;9.50;99.90;;;;;;5016689;28;20041;-73
2022/03/11 03:27:06;;;;;;;16.65;7.82;;;9.40;99.90;;;;;;5016954;28;20045;-73
2022/03/11 03:29:32;;;;;;;18.67;7.20;;;9.50;99.90;;;;;;5016901;28;20069;-73
2022/03/11 03:31:58;;;;;;;21.67;7.93;;;9.40;99.90;;;;;;5016889;28;20054;-73
2022/03/11 03:34:32;;;;;;;18.08;7.65;;;9.40;99.90;;;;;;5017387;28;20088;-73
2022/03/11 03:36:59;;;;;;;16.58;6.85;;;9.40;99.90;;;;;;5016985;28;20042;-73
2022/03/11 03:39:26;;;;;;;15.65;7.75;;;9.40;99.90;;;;;;5016999;28;20045;-73
2022/03/11 03:41:53;;;;;;;19.92;7.75;;;9.40;99.90;;;;;;5017069;28;20038;-73
2022/03/11 03:44:19;;;;;;;19.15;8.38;;;9.40;99.90;;;;;;5016909;28;20034;-73
2022/03/11 03:46:44;;;;;;;15.57;8.00;;;9.20;99.90;;;;;;5016398;28;20100;-73
2022/03/11 03:49:11;;;;;;;20.25;8.50;;;9.00;99.90;;;;;;5016717;28;20049;-73
2022/03/11 03:51:39;;;;;;;28.27;9.02;;;9.00;99.90;;;;;;5017002;28;20050;-73
2022/03/11 03:54:11;;;;;;;18.30;8.70;;;9.00;99.90;;;;;;5016674;28;20041;-73
2022/03/11 03:56:38;;;;;;;18.70;9.13;;;9.00;99.90;;;;;;5016071;28;20045;-73
2022/03/11 03:59:06;;;;;;;20.42;9.48;;;9.00;99.90;;;;;;5016680;28;20121;-73
2022/03/11 04:01:36;;;;;;;20.65;9.35;;;9.00;99.90;;;;;;5016905;28;20044;-73
2022/03/11 04:04:03;;;;;;;15.30;9.07;;;9.00;99.90;;;;;;5016849;28;20041;-73
2022/03/11 04:06:33;;;;;;;19.23;9.35;;;9.00;99.90;;;;;;5016418;28;20042;-73
2022/03/11 04:09:00;;;;;;;20.33;9.25;;;9.00;99.90;;;;;;5016704;28;20077;-73
2022/03/11 04:11:28;;;;;;;16.90;8.73;;;9.00;99.90;;;;;;5016705;28;20073;-73
2022/03/11 04:13:58;;;;;;;15.55;9.00;;;8.90;99.90;;;;;;5016359;28;20034;-73
2022/03/11 04:16:24;;;;;;;19.03;9.30;;;8.90;99.90;;;;;;5016126;28;20551;-73
2022/03/11 04:18:50;;;;;;;19.08;9.93;;;8.90;99.90;;;;;;5015976;28;20049;-73
2022/03/11 04:21:17;;;;;;;21.23;8.75;;;8.90;99.90;;;;;;5016692;28;20033;-73
2022/03/11 04:23:44;;;;;;;20.27;9.43;;;8.90;99.90;;;;;;5016445;28;20048;-73
2022/03/11 04:26:11;;;;;;;14.02;8.43;;;8.90;99.90;;;;;;5016375;28;20042;-73
2022/03/11 04:28:37;;;;;;;17.77;8.38;;;8.80;99.90;;;;;;5015990;28;20050;-73
2022/03/11 04:31:07;;;;;;;18.50;9.18;;;8.90;99.90;;;;;;5015614;28;20516;-73
2022/03/11 04:33:34;;;;;;;21.38;9.60;;;8.80;99.90;;;;;;5015903;28;20496;-73
2022/03/11 04:36:01;;;;;;;21.40;9.43;;;8.80;99.90;;;;;;5015539;28;20076;-73
2022/03/11 04:38:27;;;;;;;13.18;8.55;;;8.80;99.90;;;;;;5015911;28;20049;-73
2022/03/11 04:40:53;;;;;;;22.20;8.30;;;8.90;99.90;;;;;;5016156;28;20034;-73
2022/03/11 04:43:19;;;;;;;16.38;8.98;;;8.90;99.90;;;;;;5015883;28;20373;-73
2022/03/11 04:45:45;;;;;;;19.15;8.23;;;8.80;99.90;;;;;;5015312;28;20042;-73
2022/03/11 04:48:12;;;;;;;20.58;8.60;;;8.80;99.90;;;;;;5015423;28;20046;-73
2022/03/11 04:50:38;;;;;;;17.45;8.48;;;8.80;99.90;;;;;;5015718;28;20496;-73
2022/03/11 04:53:04;;;;;;;20.67;7.80;;;8.80;99.90;;;;;;5015112;28;20046;-73
2022/03/11 04:55:30;;;;;;;18.48;8.50;;;8.80;99.90;;;;;;5015638;28;20044;-73
2022/03/11 04:57:56;;;;;;;16.10;8.25;;;8.90;99.90;;;;;;5015285;28;20079;-73
2022/03/11 05:00:22;;;;;;;16.92;7.85;;;8.90;99.90;;;;;;5015553;28;20042;-73
2022/03/11 05:02:48;;;;;;;14.15;8.68;;;8.80;99.90;;;;;;5015398;28;20077;-73
2022/03/11 05:05:15;;;;;;;22.30;9.32;;;8.80;99.90;;;;;;5015482;28;20069;-72
2022/03/11 05:07:42;;;;;;;18.58;8.18;;;8.80;99.90;;;;;;5015429;28;20041;-73
2022/03/11 05:10:09;;;;;;;19.08;7.97;;;8.80;99.90;;;;;;5014585;28;20044;-73
2022/03/11 05:12:37;;;;;;;17.50;7.65;;;8.90;99.90;;;;;;4997331;28;20061;-73
2022/03/11 05:15:04;;;;;;;16.15;7.82;;;8.90;99.90;;;;;;5015035;28;20038;-73
2022/03/11 05:17:30;;;;;;;14.43;7.82;;;8.90;99.90;;;;;;5014238;28;20100;-73
2022/03/11 05:19:56;;;;;;;18.08;7.50;;;8.90;99.90;;;;;;5014205;28;20088;-73
2022/03/11 05:22:22;;;;;;;14.05;7.13;;;8.90;99.90;;;;;;5014887;28;20432;-73
2022/03/11 05:24:48;;;;;;;18.45;7.00;;;8.90;99.90;;;;;;4994648;28;20039;-72
2022/03/11 05:27:14;;;;;;;16.90;7.85;;;8.90;99.90;;;;;;5007045;28;20099;-73
2022/03/11 05:29:40;;;;;;;10.57;6.93;;;8.90;99.90;;;;;;5014735;28;20045;-73
2022/03/11 05:32:07;;;;;;;15.90;7.28;;;8.90;99.90;;;;;;5012194;28;20042;-76
2022/03/11 05:34:34;;;;;;;14.65;6.97;;;8.90;99.90;;;;;;5012016;28;20037;-77
2022/03/11 05:37:00;;;;;;;11.07;6.55;;;9.00;99.90;;;;;;5010947;28;20048;-75
2022/03/11 05:39:26;;;;;;;12.40;6.30;;;9.00;99.90;;;;;;5003877;28;20034;-75
2022/03/11 05:41:52;;;;;;;16.00;6.53;;;9.00;99.90;;;;;;4994568;28;20040;-76
2022/03/11 05:44:18;;;;;;;16.48;6.45;;;9.00;99.90;;;;;;4994906;28;20117;-76
2022/03/11 05:46:45;;;;;;;16.20;6.32;;;9.00;99.90;;;;;;4994580;28;20042;-75
2022/03/11 05:49:12;;;;;;;12.18;6.45;;;9.10;99.90;;;;;;4994974;28;20381;-75
2022/03/11 05:51:38;;;;;;;16.52;6.68;;;9.10;99.90;;;;;;4995179;28;20046;-76
2022/03/11 05:54:05;;;;;;;14.43;6.78;;;9.10;99.90;;;;;;4995113;28;20529;-75
2022/03/11 05:56:31;;;;;;;15.98;6.65;;;9.00;99.90;;;;;;4994928;28;20070;-76
2022/03/11 05:58:58;;;;;;;11.65;6.07;;;9.10;99.90;;;;;;4977419;28;20416;-76
2022/03/11 06:01:24;;;;;;;12.85;7.00;;;9.10;99.90;;;;;;4995056;28;20116;-75
2022/03/11 06:03:49;;;;;;;11.40;6.65;;;9.10;99.90;;;;;;4997063;28;20177;-76
2022/03/11 06:06:16;;;;;;;11.23;6.32;;;9.10;99.90;;;;;;4998861;28;20062;-76
2022/03/11 06:08:43;;;;;;;13.02;6.18;;;9.10;99.90;;;;;;4998382;28;20042;-76
2022/03/11 06:11:09;;;;;;;13.15;6.88;;;9.10;99.90;;;;;;4999288;28;20046;-75
2022/03/11 06:13:36;;;;;;;17.85;6.40;;;9.00;99.90;;;;;;4998344;28;20058;-76
2022/03/11 06:16:03;;;;;;;16.55;7.05;;;8.90;99.90;;;;;;4998765;28;20048;-75
2022/03/11 06:18:29;;;;;;;16.35;6.93;;;9.00;99.90;;;;;;4998611;28;20078;-75
2022/03/11 06:20:56;;;;;;;13.90;6.50;;;8.90;99.90;;;;;;4998625;28;20085;-75
2022/03/11 06:23:23;;;;;;;15.23;6.57;;;8.90;99.90;;;;;;4998258;28;20129;-76
2022/03/11 06:25:49;;;;;;;12.43;7.25;;;8.90;99.90;;;;;;4998266;28;20035;-75
2022/03/11 06:28:15;;;;;;;14.20;6.57;;;8.90;99.90;;;;;;4998380;28;20046;-76
2022/03/11 06:30:42;;;;;;;13.88;7.15;;;8.90;99.90;;;;;;4998414;28;20042;-76
2022/03/11 06:33:09;;;;;;;14.68;6.60;;;8.90;99.90;;;;;;4997949;28;20046;-76
2022/03/11 06:35:35;;;;;;;13.93;6.88;;;8.90;99.90;;;;;;4998312;28;20050;-76
2022/03/11 06:38:01;;;;;;;14.13;6.90;;;8.90;99.90;;;;;;4998284;28;20449;-75
2022/03/11 06:40:27;;;;;;;18.25;7.30;;;8.90;99.90;;;;;;4998225;28;20037;-75
2022/03/11 06:42:53;;;;;;;17.85;7.28;;;8.90;99.90;;;;;;4997862;28;20038;-76
2022/03/11 06:45:20;;;;;;;13.80;6.47;;;8.90;99.90;;;;;;4998236;28;20092;-76
2022/03/11 06:47:47;;;;;;;15.48;6.97;;;8.90;99.90;;;;;;4997936;28;20057;-76
2022/03/11 06:50:15;;;;;;;12.27;5.85;;;8.90;99.90;;;;;;4997975;28;20034;-75
2022/03/11 06:52:41;;;;;;;16.30;6.90;;;9.00;99.90;;;;;;4997863;28;20050;-76
2022/03/11 06:55:07;;;;;;;13.23;6.63;;;9.00;99.90;;;;;;4998482;28;20364;-76
2022/03/11 06:57:34;;;;;;;22.25;7.13;;;9.00;99.90;;;;;;4997940;28;20042;-75
2022/03/11 07:00:01;;;;;;;13.38;6.28;;;9.00;99.90;;;;;;4997925;28;20533;-76
2022/03/11 07:02:27;;;;;;;14.35;6.65;;;9.00;99.90;;;;;;4997827;28;20093;-76
2022/03/11 07:04:53;;;;;;;14.32;6.10;;;9.10;99.90;;;;;;4997533;28;20042;-76
2022/03/11 07:07:19;;;;;;;11.95;6.43;;;9.00;99.90;;;;;;4997666;28;20073;-75
2022/03/11 07:09:44;;;;;;;17.10;6.78;;;9.00;99.90;;;;;;4998227;28;20085;-76
2022/03/11 07:12:10;;;;;;;12.75;6.10;;;9.00;99.90;;;;;;4997638;28;20089;-75
2022/03/11 07:14:36;;;;;;;13.85;6.20;;;9.10;99.90;;;;;;4997121;28;20038;-76
2022/03/11 07:17:06;;;;;;;14.20;5.93;;;9.10;96.30;;;;;;4997629;28;20042;-75
2022/03/11 07:19:34;;;;;;;12.02;5.47;;;9.10;94.50;;;;;;4997788;28;20046;-76
2022/03/11 07:22:02;;;;;;;10.45;5.35;;;9.20;76.90;;;;;;4997616;28;20044;-76
2022/03/11 07:24:28;;;;;;;11.20;5.75;;;9.20;59.90;;;;;;4997701;28;20065;-75
2022/03/11 07:26:55;;;;;;;13.90;5.85;;;9.20;76.00;;;;;;4997042;28;20085;-76
2022/03/11 07:29:21;;;;;;;17.42;6.15;;;9.10;84.40;;;;;;4997557;28;20057;-76
2022/03/11 07:31:47;;;;;;;12.38;5.78;;;9.20;94.90;;;;;;4997502;28;20054;-76
2022/03/11 07:34:13;;;;;;;11.95;5.50;;;9.10;99.90;;;;;;4997409;28;20181;-76
2022/03/11 07:36:39;;;;;;;11.43;5.40;;;9.10;99.90;;;;;;5002847;28;20034;-75
2022/03/11 07:39:07;;;;;;;20.20;6.68;;;9.10;93.60;;;;;;5003419;28;20050;-75
2022/03/11 07:41:34;;;;;;;13.73;5.80;;;9.10;99.90;;;;;;5016634;28;20037;-74
2022/03/11 07:44:00;;;;;;;15.52;5.90;;;9.10;99.20;;;;;;5016926;28;20038;-74
2022/03/11 07:46:27;;;;;;;16.35;6.55;;;9.10;99.90;;;;;;5011444;28;20511;-74
2022/03/11 07:48:54;;;;;;;15.68;6.13;;;9.10;99.90;;;;;;5016533;28;20054;-74
2022/03/11 07:51:20;;;;;;;12.77;5.45;;;9.10;99.70;;;;;;5009332;28;20181;-74
2022/03/11 07:53:46;;;;;;;13.27;5.97;;;9.10;90.30;;;;;;4996906;28;20042;-74
2022/03/11 07:56:14;;;;;;;12.25;5.72;;;9.10;97.80;;;;;;4996930;28;20034;-74
2022/03/11 07:58:43;;;;;;;11.90;5.70;;;9.10;87.30;;;;;;4996709;28;20045;-74
2022/03/11 08:01:10;;;;;;;12.73;5.50;;;9.10;81.40;;;;;;4985649;28;20068;-74
2022/03/11 08:03:37;;;;;;;12.38;6.10;;;9.10;67.50;;;;;;5007856;28;20045;-74
2022/03/11 08:06:04;;;;;;;12.07;5.50;;;9.20;96.70;;;;;;4999083;28;20038;-73
2022/03/11 08:08:30;;;;;;;14.43;6.05;;;9.20;94.40;;;;;;5015781;28;20127;-74
2022/03/11 08:10:56;;;;;;;11.18;6.10;;;9.10;85.00;;;;;;5016258;28;20061;-74
2022/03/11 08:13:22;;;;;;;16.83;6.53;;;9.10;80.10;;;;;;5016345;28;20045;-74
2022/03/11 08:15:49;;;;;;;10.70;5.90;;;9.10;76.00;;;;;;5015579;28;20497;-73
2022/03/11 08:18:15;;;;;;;15.05;5.78;;;9.10;92.80;;;;;;4982223;28;20038;-74
2022/03/11 08:20:42;;;;;;;16.63;5.88;;;9.10;76.80;;;;;;4996461;28;20046;-74
2022/03/11 08:23:08;;;;;;;15.07;6.40;;;9.10;67.00;;;;;;4996419;28;20038;-74
2022/03/11 08:25:36;;;;;;;11.73;5.53;;;9.20;82.90;;;;;;4995933;28;20057;-74
2022/03/11 08:28:04;;;;;;;11.48;5.93;;;9.20;61.70;;;;;;4994755;28;20120;-74
2022/03/11 08:30:31;;;;;;;11.50;5.57;;;9.20;54.90;;;;;;4996124;28;20516;-74
2022/03/11 08:32:57;;;;;;;13.93;6.05;;;9.20;55.90;;;;;;4995749;28;20054;-74
2022/03/11 08:35:24;;;;;;;13.77;6.20;;;9.30;33.00;;;;;;4996131;28;20038;-74
2022/03/11 08:37:51;;;;;;;11.07;5.50;;;9.30;38.40;;;;;;4996622;28;20038;-74
2022/03/11 08:40:23;;;;;;;12.02;5.32;;;9.30;28.60;;;;;;4995856;28;20038;-74
2022/03/11 08:42:53;;;;;;;8.93;5.30;;;9.40;30.00;;;;;;4995676;28;20038;-74
2022/03/11 08:45:21;;;;;;;17.95;5.70;;;9.40;38.80;;;;;;4996216;28;20113;-74
2022/03/11 08:47:47;;;;;;;13.43;5.63;;;9.30;37.00;;;;;;4995824;28;20485;-74
2022/03/11 08:50:14;;;;;;;10.07;5.22;;;9.30;45.10;;;;;;4995879;28;20065;-74
2022/03/11 08:52:40;;;;;;;12.48;6.07;;;9.30;44.60;;;;;;4995934;28;20133;-74
2022/03/11 08:55:07;;;;;;;12.20;6.18;;;9.30;47.10;;;;;;4995793;28;20042;-74
2022/03/11 08:57:35;;;;;;;16.90;5.15;;;9.30;43.70;;;;;;4996255;28;20064;-74
2022/03/11 09:00:07;;;;;;;15.45;5.70;;;9.40;38.70;;;;;;4996212;28;20038;-74
2022/03/11 09:02:37;;;;;;;10.98;5.28;;;9.40;40.80;;;;;;4995891;28;20070;-74
2022/03/11 09:05:04;;;;;;;12.73;5.63;;;9.40;28.40;;;;;;4996475;28;20038;-74
2022/03/11 09:07:32;;;;;;;13.32;5.28;;;9.40;37.20;;;;;;4995955;28;20049;-74
2022/03/11 09:09:59;;;;;;;12.32;5.10;;;9.40;22.80;;;;;;4995531;28;20074;-74
2022/03/11 09:12:25;;;;;;;10.63;5.30;;;9.40;24.20;;;;;;4996032;28;20054;-74
2022/03/11 09:14:50;;;;;;;8.27;5.22;;;9.40;40.50;;;;;;4995957;28;20034;-74
2022/03/11 09:17:16;;;;;;;12.82;5.43;;;9.40;26.50;;;;;;4995619;28;20102;-74
2022/03/11 09:19:43;;;;;;;14.73;5.50;;;9.40;26.90;;;;;;4995690;28;20042;-74
2022/03/11 09:22:11;;;;;;;10.98;5.35;;;9.40;33.40;;;;;;4995042;28;20528;-74
2022/03/11 09:24:41;;;;;;;13.52;5.05;;;9.50;28.70;;;;;;4995775;28;20060;-74
2022/03/11 09:27:14;;;;;;;17.08;5.15;;;9.50;23.00;;;;;;4995227;28;20038;-74
2022/03/11 09:29:40;;;;;;;11.05;4.75;;;9.50;19.20;;;;;;4995826;28;20054;-74
2022/03/11 09:32:07;;;;;;;10.88;5.35;;;9.40;19.00;;;;;;4995196;28;20085;-74
2022/03/11 09:34:34;;;;;;;10.55;5.65;;;9.40;27.20;;;;;;4995402;28;20038;-74
2022/03/11 09:36:59;;;;;;;11.73;5.68;;;9.40;22.00;;;;;;4995186;28;20053;-74
2022/03/11 09:39:27;;;;;;;12.35;5.93;;;9.40;18.00;;;;;;4994953;28;20132;-74
2022/03/11 09:41:53;;;;;;;12.20;5.35;;;9.40;24.50;;;;;;4995389;28;20042;-74
2022/03/11 09:44:20;;;;;;;15.70;5.93;;;9.50;17.10;;;;;;5000962;28;20130;-74
2022/03/11 09:46:47;;;;;;;10.52;5.10;;;9.50;16.10;;;;;;5008752;28;20042;-75
2022/03/11 09:49:15;;;;;;;14.68;5.35;;;9.50;26.40;;;;;;5005974;28;20045;-74
2022/03/11 09:51:42;;;;;;;10.85;5.68;;;9.50;22.90;;;;;;5014901;28;20480;-73
2022/03/11 09:54:09;;;;;;;21.63;6.43;;;9.40;23.20;;;;;;5012017;28;20034;-73
2022/03/11 09:56:36;;;;;;;13.98;5.68;;;9.50;12.10;;;;;;5011835;28;20527;-73
2022/03/11 09:59:02;;;;;;;12.00;5.68;;;9.50;15.30;;;;;;5012595;28;20033;-74
2022/03/11 10:01:28;;;;;;;12.73;6.40;;;9.50;26.80;;;;;;4996571;28;20096;-74
2022/03/11 10:03:54;;;;;;;14.85;5.53;;;9.50;19.70;;;;;;4995568;28;20046;-74
2022/03/11 10:06:38;;;;;;;13.02;5.10;;;9.40;17.00;;;;;;4994491;28;20042;-74
2022/03/11 10:09:04;;;;;;;13.45;5.70;;;9.50;12.90;;;;;;4994116;28;20049;-73
2022/03/11 10:11:30;;;;;;;13.15;5.47;;;9.50;15.60;;;;;;4995339;28;20121;-73
2022/03/11 10:14:07;;;;;;;14.30;5.70;;;9.50;13.30;;;;;;4994534;28;20201;-73
2022/03/11 10:16:34;;;;;;;13.43;5.68;;;9.50;22.80;;;;;;4993988;28;20070;-73
2022/03/11 10:19:06;;;;;;;12.95;5.22;;;9.50;20.00;;;;;;4992745;28;20133;-73
2022/03/11 10:21:37;;;;;;;12.27;5.43;;;9.50;9.90;;;;;;4994507;28;20117;-73
2022/03/11 10:24:05;;;;;;;;;;;9.50;6.80;;;;;;4997369;28;20042;-73
2022/03/11 10:26:30;;;;;;;8.60;5.03;;;9.50;7.00;;;;;;5011765;28;20280;-73
2022/03/11 10:29:01;;;;;;;9.15;4.72;;;9.50;6.30;;;;;;5008638;28;20046;-73
2022/03/11 10:31:42;;;;;;;13.90;5.45;;;9.60;5.40;;;;;;5013861;28;20046;-74
2022/03/11 10:34:18;;;;;;;13.93;6.00;;;9.60;4.80;;;;;;4998765;28;20038;-74
2022/03/11 10:36:51;;;;;;;11.68;5.60;;;9.60;9.70;;;;;;4997558;28;20046;-73
2022/03/11 10:39:28;;;;;;;11.32;5.38;;;9.60;5.10;;;;;;5008820;28;20034;-73
2022/03/11 10:41:55;;;;;;;15.68;5.55;;;9.60;1.00;;;;;;4994966;28;20100;-74
2022/03/11 10:44:25;;;;;;;13.38;5.40;;;9.70;6.80;;;;;;4998276;28;20074;-74
2022/03/11 10:46:55;;;;;;;13.23;5.40;;;9.70;3.80;;;;;;5006225;28;20049;-73
2022/03/11 10:49:26;;;;;;;17.67;7.27;;;9.80;1.00;;;;;;5005795;28;20041;-73
2022/03/11 10:51:54;;;;;;;12.00;5.43;;;9.70;1.40;;;;;;4996816;28;20040;-74
2022/03/11 10:54:23;;;;;;;7.25;5.03;;;9.70;1.00;;;;;;4998223;28;20035;-73
2022/03/11 10:56:49;;;;;;;10.80;5.53;;;9.70;1.00;;;;;;5013730;28;20060;-73
2022/03/11 10:59:21;;;;;;;12.50;5.53;;;9.70;1.00;;;;;;5017644;28;20508;-73
2022/03/11 11:01:47;;;;;;;12.63;5.57;;;9.70;1.00;;;;;;5011916;28;20060;-74
2022/03/11 11:04:15;;;;;;;11.32;5.05;;;9.60;1.00;;;;;;4997662;28;20520;-73
2022/03/11 11:06:41;;;;;;;15.07;5.65;;;9.60;1.00;;;;;;5005288;28;20030;-73
2022/03/11 11:09:09;;;;;;;12.70;5.72;;;9.60;2.10;;;;;;5014515;28;20049;-72
2022/03/11 11:11:35;;;;;;;11.15;4.93;;;9.60;1.00;;;;;;5001789;28;20057;-74
2022/03/11 11:14:05;;;;;;;11.90;5.10;;;9.60;1.40;;;;;;5017112;28;20397;-74
2022/03/11 11:16:40;;;;;;;11.20;6.03;;;9.60;1.00;;;;;;5008581;28;20036;-74
2022/03/11 11:19:11;;;;;;;13.75;5.32;;;9.70;1.00;;;;;;4995867;28;20073;-73
2022/03/11 11:21:44;;;;;;;11.60;6.22;;;9.70;3.10;;;;;;4997698;28;20109;-74
2022/03/11 11:24:22;;;;;;;12.45;5.65;;;9.70;5.30;;;;;;4992902;28;20054;-74
2022/03/11 11:26:53;;;;;;;14.05;5.90;;;9.70;4.30;;;;;;4996558;28;20061;-74
2022/03/11 11:29:22;;;;;;;10.20;5.70;;;9.70;8.80;;;;;;5009484;28;20144;-74
2022/03/11 11:31:49;;;;;;;9.90;5.50;;;9.70;7.10;;;;;;5016447;28;20085;-74
2022/03/11 11:34:33;;;;;;;12.95;5.15;;;9.60;3.10;;;;;;5014693;28;20052;-73
2022/03/11 11:37:01;;;;;;;9.65;4.90;;;9.70;2.90;;;;;;5013992;28;20042;-74
2022/03/11 11:39:38;;;;;;;13.93;5.63;;;9.70;1.00;;;;;;5013897;28;20046;-73
2022/03/11 11:42:12;;;;;;;11.02;5.82;;;9.70;1.00;;;;;;4998259;28;20042;-74
2022/03/11 11:44:40;;;;;;;14.07;5.97;;;9.70;1.00;;;;;;4996797;28;20034;-74
2022/03/11 11:47:15;;;;;;;11.05;5.60;;;9.70;4.70;;;;;;4996591;28;20038;-75
2022/03/11 11:49:43;;;;;;;12.13;5.75;;;9.70;9.10;;;;;;4995971;28;20046;-74
2022/03/11 11:52:12;;;;;;;12.93;5.10;;;9.70;9.10;;;;;;4996140;28;20096;-74
2022/03/11 11:54:40;;;;;;;10.65;5.60;;;9.70;3.30;;;;;;5005283;28;20099;-73
2022/03/11 11:57:08;;;;;;;14.68;5.38;;;9.70;6.90;;;;;;5016580;28;20049;-73
2022/03/11 11:59:37;;;;;;;11.88;5.90;;;9.80;1.00;;;;;;5016370;28;20045;-73
2022/03/11 12:02:21;;;;;;;11.00;5.18;;;9.80;1.00;;;;;;5016094;28;20484;-74
2022/03/11 12:04:47;;;;;;;15.13;7.25;;;9.80;5.00;;;;;;5007066;28;20045;-74
2022/03/11 12:07:15;;;;;;;10.20;5.10;;;9.70;6.70;;;;;;5016414;28;20069;-74
2022/03/11 12:09:41;;;;;;;10.27;6.80;;;9.70;6.60;;;;;;5016538;28;20049;-74
2022/03/11 12:12:44;;;;;;;9.73;4.82;;;9.70;13.30;;;;;;5016300;28;20392;-74
2022/03/11 12:15:11;;;;;;;11.15;5.93;;;9.60;22.10;;;;;;5008408;28;20074;-74
2022/03/11 12:18:03;;;;;;;10.73;5.38;;;9.60;13.80;;;;;;4992033;28;20049;-74
2022/03/11 12:20:32;;;;;;;10.32;5.65;;;9.70;43.60;;;;;;4995724;28;20034;-74
2022/03/11 12:23:13;;;;;;;10.68;5.93;;;9.60;23.10;;;;;;5006638;28;20042;-74
2022/03/11 12:25:54;;;;;;;14.57;6.40;;;9.60;45.60;;;;;;5009476;28;20480;-74
2022/03/11 12:28:32;;;;;;;9.73;5.70;;;9.60;47.40;;;;;;5013499;28;20141;-73
2022/03/11 12:31:09;;;;;;;11.85;6.35;;;9.50;32.70;;;;;;5013802;28;20030;-73
2022/03/11 12:33:42;;;;;;;10.95;5.68;;;9.60;54.00;;;;;;5014597;28;20061;-74
2022/03/11 12:36:17;;;;;;;10.65;6.30;;;9.50;46.70;;;;;;5011367;28;20038;-75
2022/03/11 12:38:44;;;;;;;10.93;7.45;;;9.40;47.40;;;;;;5002448;28;20046;-74
2022/03/11 12:41:14;;;;;;;12.80;6.18;;;9.50;52.30;;;;;;4995666;28;20109;-74
2022/03/11 12:43:42;;;;;;;10.57;5.38;;;9.50;56.50;;;;;;4996137;28;20066;-74
2022/03/11 12:46:10;;;;;;;16.65;6.45;;;9.40;47.00;;;;;;4995675;28;20081;-74
2022/03/11 12:48:38;;;;;;;12.50;5.57;;;9.30;84.30;;;;;;4995727;28;20050;-74
2022/03/11 12:51:07;;;;;;;12.50;6.38;;;9.30;81.40;;;;;;4995828;28;20100;-74